x

Nantucket 54nm Southeast Of Nantucket (44008) Wave Buoy

4:50pm - Mon 25th Sep 2017 All times are EDT. -4 hours from GMT.

  • Sig Wave height 9.5ft
  • Swell Direction
  • Peak Period 15s
  • Average Period 12s
  • Wind
    7mph, 11mph gusts
  • Sea Temp 63°f
  • Air Temp 65°f
  • Sea Pressure 1016.5mb
  • Nantucket 54nm Southeast Of Nantucket
  • Nantucket 54nm Southeast Of Nantucket

More Historic Weather Station data

Upgrade to MSW Pro to gain access to the past 30 days of data for over 8000 Wavebouys and Weather Stations around the globe.

Join

Comparision Forecast

View Surf forecast
   
Mon 09/25 4:50pm 9.5ft 15s 12s 7 11 mph 1016.5mb 63f 65f
3:50pm 8ft 15s 11s 9 11 mph 1016.7mb 63f 65f
2:50pm 10ft 14s 11s 9 11 mph 1017.1mb 63f 64f
1:50pm 8.5ft 14s 11s 9 11 mph 1017.4mb 63f 64f
12:50pm 10ft 15s 12s 7 11 mph 1017.3mb 63f 63f
11:50am 9ft 14s 11s 9 11 mph 1017.7mb 63f 64f
10:50am 11ft 14s 11s 9 13 mph 1017.7mb 62f 63f
9:50am 9ft 15s 11s 9 13 mph 1017.9mb 62f 63f
8:50am 9ft 12s 11s 7 11 mph 1017.4mb 62f 62f
7:50am 8.5ft 11s 10s 11 13 mph 1017mb 62f 63f
6:50am 8ft 13s 10s 11 13 mph 1016.8mb 62f 62f
5:50am 7.5ft 13s 10s 9 13 mph 1016.4mb 62f 63f
4:50am 6.5ft 13s 9s 7 9 mph 1016mb 62f 63f
3:50am 6.5ft 12s 9s 7 7 mph 1015.9mb 62f 63f
2:50am 6.5ft 12s 9s 9 9 mph 1015.9mb 62f 62f
1:50am 7ft 12s 9s 9 9 mph 1016.4mb 62f 63f
12:50am 7ft 13s 9s 9 11 mph 1016.3mb 62f 63f
Sun 09/24 11:50pm 6.5ft 13s 9s 11 13 mph 1016.3mb 62f 62f
10:50pm 7.5ft 12s 9s 11 13 mph 1016.5mb 62f 62f
9:50pm 7.5ft 12s 9s 9 13 mph 1016.4mb 62f 63f
8:50pm 7.5ft 12s 9s 9 11 mph 1015.8mb 62f 62f
7:50pm 7ft 13s 8s 9 11 mph 1016.2mb 62f 62f
6:50pm 8ft 14s 9s 11 13 mph 1015.4mb 62f 63f
5:50pm 8ft 14s 9s 11 13 mph 1015.3mb 62f 63f
4:50pm 7ft 14s 8s 11 16 mph 1015.1mb 62f 62f
3:50pm 6.5ft 14s 7s 13 16 mph 1014.9mb 62f 63f
2:50pm 7ft 14s 7s 13 18 mph 1015.4mb 62f 63f
1:50pm 7ft 14s 7s 16 18 mph 1015.1mb 62f 63f
12:50pm 7ft 14s 8s 16 20 mph 1015.5mb 62f 63f
11:50am 7.5ft 15s 8s 16 20 mph 1015.6mb 62f 63f
10:50am 8ft 15s 7s 18 20 mph 1015.6mb 62f 63f
9:50am 7ft 15s 7s 20 27 mph 1015.3mb 62f 61f
8:50am 7ft 14s 7s 18 22 mph 1015.4mb 62f 61f
7:50am 6.5ft 12s 7s 18 20 mph 1014.9mb 62f 62f
6:50am 7ft 12s 7s 16 20 mph 1014.6mb 62f 62f
5:50am 6.5ft 12s 7s 16 20 mph 1014.2mb 62f 62f
4:50am 6ft 14s 7s 16 18 mph 1013.8mb 62f 62f
3:50am 6ft 14s 7s 16 18 mph 1013.4mb 62f 63f
2:50am 6ft 13s 7s 16 18 mph 1013.4mb 62f 62f
1:50am 5.5ft 13s 7s 16 18 mph 1013.5mb 62f 62f
12:50am 6ft 13s 7s 16 18 mph 1013.5mb 62f 63f
Sat 09/23 11:50pm 5.5ft 13s 7s 13 16 mph 1013.7mb 62f 62f
10:50pm 5.5ft 14s 7s 13 18 mph 1013.9mb 62f 63f
9:50pm 5.5ft 15s 7s 13 18 mph 1013.7mb 62f 62f
8:50pm 7ft 14s 7s 16 18 mph 1013.6mb 62f 63f
7:50pm 6.5ft 14s 7s 18 22 mph 1013.3mb 62f 63f
6:50pm 7ft 14s 7s 16 18 mph 1012.9mb 62f 62f
5:50pm 7ft 14s 6s 16 20 mph 1012.6mb 62f 63f
4:50pm 7ft 15s 6s 16 20 mph 1012.1mb 62f 63f
3:50pm 6ft 8s 6s 18 20 mph 1012.1mb 62f 62f
2:50pm 6ft 15s 7s 16 18 mph 1011.9mb 62f 63f
1:50pm 6ft 11s 7s 11 13 mph 1012mb 62f 63f
12:50pm 6ft 7s 6s 11 13 mph 1011.8mb 62f 64f
11:50am 6.5ft 8s 6s 13 18 mph 1011.3mb 62f 64f
10:50am 6.5ft 11s 6s 13 18 mph 1011mb 62f 64f
9:50am 7ft 8s 6s 16 18 mph 1010.8mb 61f 63f
8:50am 7ft 8s 6s 11 13 mph 1010.7mb 61f 63f
7:50am 7ft 7s 6s 16 18 mph 1009.6mb 61f 63f
6:50am 7.5ft 7s 6s 13 16 mph 1009.2mb 61f 63f
5:50am 7.5ft 8s 6s 13 16 mph 1008.5mb 61f 64f
4:50am 7.5ft 8s 6s 13 16 mph 1008mb 61f 65f
3:50am 8ft 7s 6s 13 18 mph 1007.3mb 62f 67f
2:50am 7ft 7s 6s 20 25 mph 1006.6mb 62f 67f
1:50am 8ft 8s 6s 18 22 mph 1006.7mb 62f 67f
12:50am 8ft 8s 6s 18 20 mph 1006.3mb 61f 65f
Fri 09/22 11:50pm 9.5ft 7s 6s 20 22 mph 1005.7mb 61f 65f
10:50pm 10ft 9s 6s 22 27 mph 1004.9mb 61f 65f
9:50pm 11ft 8s 6s 25 27 mph 1004.5mb 61f 65f
8:50pm 10.5ft 8s 6s 22 27 mph 1004.2mb 61f 64f
7:50pm 10ft 8s 6s 22 25 mph 1004.1mb 61f 64f
6:50pm 10.5ft 7s 6s 22 27 mph 1003.8mb 61f 65f
5:50pm 10ft 8s 6s 20 22 mph 1003.9mb 61f 65f
4:50pm 9.5ft 9s 6s 18 20 mph 1003.8mb 61f 64f
3:50pm 9ft 9s 6s 18 20 mph 1003.6mb 61f 65f
2:50pm 9.5ft 10s 7s 18 20 mph 1003.6mb 61f 66f
1:50pm 9.5ft 10s 6s 16 20 mph 1003.5mb 61f 64f
12:50pm 9ft 9s 6s 16 20 mph 1003.5mb 62f 64f
11:50am 9.5ft 11s 6s 18 20 mph 1003.1mb 61f 64f
10:50am 11ft 10s 7s 22 27 mph 1002.2mb 61f 64f
9:50am 12ft 10s 7s 27 29 mph 1001.6mb 61f 64f
8:50am 12ft 10s  -  29 36 mph 1000.3mb 61f 65f
7:50am 15.5ft 8s 7s 36 40 mph 998.9mb 61f 65f
6:50am 14.5ft 10s 7s 36 43 mph 998.3mb 61f 65f
5:50am 15ft 10s 7s 36 43 mph 998mb 61f 65f
4:50am 15.5ft 9s 7s 36 40 mph 998.3mb 61f 65f
3:50am 15ft 10s 7s 34 43 mph 998.6mb 62f 65f
2:50am 15ft 10s 7s 31 38 mph 999mb 62f 65f
1:50am 15ft 10s 7s 29 36 mph 999.8mb 63f 65f
12:50am 15.5ft 11s 8s 31 38 mph 999.8mb 62f 65f
Thu 09/21 11:50pm 16.5ft 11s 8s 31 38 mph 999.6mb 61f 65f
10:50pm 15.5ft 11s 8s 34 43 mph 999.4mb 61f 65f